PWSweather.com
Personal Weather Stations
Station Observations
KPASPRIN10
East Vincent, East Vincent, PA 19475

East VincentEast Vincent, PA 19475

Lat: 40.170948, Lon: -75.629681

Elevation: 404

Station Type: Davis VP2

http://www.evweather.com

High Low Average
Temperature 38.2°F3.4°C 19.0°F-7.2°C 27.8°F-2.3°C
Dew Point 27.1°F-2.7°C 17.1°F-8.3°C 22.0°F-5.6°C
Winds 5.8 mph 9.3 kmh Calm Calm 1.0 mph WSW1.6 kmh WSW
Wind Gusts 11.5 mph18.5 kmh -- 2.0 mph3.2 kmh
Humidity 93% 62% 79%
Pressure 30.18 in1022.0 mb 29.98 in1015.2 mb -
Precipitation 0.00 in0.0 mm - -
Hour Temp Dew Point Humidity Winds Wind Gusts Pressure Precip Precip Rate Daily Precip Total
12:00 AM 26.0°F-3.3°C 20.9°F-6.2°C 81% Calm Calm -- 30.18 in1022.0 mb - 0.00 in0.0 mm 0.00 in0.0 mm
12:10 AM 25.6°F-3.6°C 20.6°F-6.3°C 81% Calm Calm -- 30.18 in1022.0 mb - 0.00 in0.0 mm 0.00 in0.0 mm
12:20 AM 23.5°F-4.7°C 19.1°F-7.2°C 83% Calm Calm -- 30.18 in1022.0 mb - 0.00 in0.0 mm 0.00 in0.0 mm
12:30 AM 24.2°F-4.3°C 20.1°F-6.6°C 84% Calm Calm -- 30.17 in1021.7 mb - 0.00 in0.0 mm 0.00 in0.0 mm
12:40 AM 23.8°F-4.6°C 19.7°F-6.8°C 84% Calm Calm -- 30.18 in1022.0 mb - 0.00 in0.0 mm 0.00 in0.0 mm
12:50 AM 23.5°F-4.7°C 19.6°F-6.9°C 85% Calm Calm -- 30.17 in1021.7 mb - 0.00 in0.0 mm 0.00 in0.0 mm
01:00 AM 24.4°F-4.2°C 20.5°F-6.4°C 85% Calm Calm -- 30.18 in1022.0 mb - 0.00 in0.0 mm 0.00 in0.0 mm
01:10 AM 23.3°F-4.8°C 18.9°F-7.3°C 83% Calm Calm -- 30.18 in1022.0 mb - 0.00 in0.0 mm 0.00 in0.0 mm
01:20 AM 23.1°F-4.9°C 19.3°F-7.1°C 85% Calm Calm -- 30.18 in1022.0 mb - 0.00 in0.0 mm 0.00 in0.0 mm
01:30 AM 23.0°F-5.0°C 19.5°F-6.9°C 86% Calm Calm -- 30.17 in1021.7 mb - 0.00 in0.0 mm 0.00 in0.0 mm
01:40 AM 22.2°F-5.4°C 18.4°F-7.6°C 85% Calm Calm -- 30.17 in1021.7 mb - 0.00 in0.0 mm 0.00 in0.0 mm
01:50 AM 22.1°F-5.5°C 18.6°F-7.4°C 86% Calm Calm -- 30.17 in1021.7 mb - 0.00 in0.0 mm 0.00 in0.0 mm
02:00 AM 21.9°F-5.6°C 18.6°F-7.4°C 87% Calm Calm -- 30.18 in1022.0 mb - 0.00 in0.0 mm 0.00 in0.0 mm
02:10 AM 22.1°F-5.5°C 18.8°F-7.3°C 87% Calm Calm -- 30.18 in1022.0 mb - 0.00 in0.0 mm 0.00 in0.0 mm
02:20 AM 22.2°F-5.4°C 19.2°F-7.1°C 88% Calm Calm -- 30.18 in1022.0 mb - 0.00 in0.0 mm 0.00 in0.0 mm
02:30 AM 21.6°F-5.8°C 18.6°F-7.4°C 88% Calm Calm -- 30.18 in1022.0 mb - 0.00 in0.0 mm 0.00 in0.0 mm
02:40 AM 22.0°F-5.6°C 19.0°F-7.2°C 88% Calm Calm -- 30.18 in1022.0 mb - 0.00 in0.0 mm 0.00 in0.0 mm
02:50 AM 21.2°F-6.0°C 18.2°F-7.7°C 88% Calm Calm -- 30.18 in1022.0 mb - 0.00 in0.0 mm 0.00 in0.0 mm
03:00 AM 21.8°F-5.7°C 19.1°F-7.2°C 89% Calm Calm -- 30.18 in1022.0 mb - 0.00 in0.0 mm 0.00 in0.0 mm
03:10 AM 22.4°F-5.3°C 19.4°F-7.0°C 88% Calm Calm -- 30.18 in1022.0 mb - 0.00 in0.0 mm 0.00 in0.0 mm
03:20 AM 22.1°F-5.5°C 19.1°F-7.2°C 88% Calm Calm -- 30.17 in1021.7 mb - 0.00 in0.0 mm 0.00 in0.0 mm
03:30 AM 20.9°F-6.2°C 17.9°F-7.8°C 88% Calm Calm -- 30.18 in1022.0 mb - 0.00 in0.0 mm 0.00 in0.0 mm
03:40 AM 20.8°F-6.2°C 18.1°F-7.7°C 89% Calm Calm -- 30.17 in1021.7 mb - 0.00 in0.0 mm 0.00 in0.0 mm
03:50 AM 21.3°F-5.9°C 18.8°F-7.3°C 90% Calm Calm -- 30.17 in1021.7 mb - 0.00 in0.0 mm 0.00 in0.0 mm
04:00 AM 21.3°F-5.9°C 18.8°F-7.3°C 90% Calm Calm -- 30.17 in1021.7 mb - 0.00 in0.0 mm 0.00 in0.0 mm
04:10 AM 20.6°F-6.3°C 18.1°F-7.7°C 90% Calm Calm -- 30.17 in1021.7 mb - 0.00 in0.0 mm 0.00 in0.0 mm
04:20 AM 20.9°F-6.2°C 18.4°F-7.6°C 90% Calm Calm -- 30.17 in1021.7 mb - 0.00 in0.0 mm 0.00 in0.0 mm
04:30 AM 20.7°F-6.3°C 18.2°F-7.7°C 90% Calm Calm -- 30.16 in1021.3 mb - 0.00 in0.0 mm 0.00 in0.0 mm
04:40 AM 20.8°F-6.2°C 18.4°F-7.6°C 90% Calm Calm -- 30.16 in1021.3 mb - 0.00 in0.0 mm 0.00 in0.0 mm
04:50 AM 20.3°F-6.5°C 17.8°F-7.9°C 90% Calm Calm -- 30.16 in1021.3 mb - 0.00 in0.0 mm 0.00 in0.0 mm
05:00 AM 20.3°F-6.5°C 18.1°F-7.7°C 91% Calm Calm -- 30.16 in1021.3 mb - 0.00 in0.0 mm 0.00 in0.0 mm
05:10 AM 20.6°F-6.3°C 18.4°F-7.6°C 91% Calm Calm -- 30.16 in1021.3 mb - 0.00 in0.0 mm 0.00 in0.0 mm
05:20 AM 19.9°F-6.7°C 17.7°F-7.9°C 91% Calm Calm -- 30.16 in1021.3 mb - 0.00 in0.0 mm 0.00 in0.0 mm
05:30 AM 20.2°F-6.6°C 18.0°F-7.8°C 91% Calm Calm -- 30.16 in1021.3 mb - 0.00 in0.0 mm 0.00 in0.0 mm
05:40 AM 20.3°F-6.5°C 18.1°F-7.7°C 91% 2.3 mph WSW3.7 kmh WSW 3.5 mph5.6 kmh 30.16 in1021.3 mb - 0.00 in0.0 mm 0.00 in0.0 mm
05:50 AM 20.6°F-6.3°C 18.4°F-7.6°C 91% 1.2 mph WSW1.9 kmh WSW 1.2 mph1.9 kmh 30.16 in1021.3 mb - 0.00 in0.0 mm 0.00 in0.0 mm
06:00 AM 20.0°F-6.7°C 17.8°F-7.9°C 91% Calm Calm -- 30.16 in1021.3 mb - 0.00 in0.0 mm 0.00 in0.0 mm
06:10 AM 20.2°F-6.6°C 17.9°F-7.8°C 91% 2.3 mph WSW3.7 kmh WSW 2.3 mph3.7 kmh 30.16 in1021.3 mb - 0.00 in0.0 mm 0.00 in0.0 mm
06:20 AM 20.0°F-6.7°C 17.8°F-7.9°C 91% 2.3 mph WSW3.7 kmh WSW 3.5 mph5.6 kmh 30.16 in1021.3 mb - 0.00 in0.0 mm 0.00 in0.0 mm
06:30 AM 19.5°F-6.9°C 17.3°F-8.2°C 91% Calm Calm -- 30.16 in1021.3 mb - 0.00 in0.0 mm 0.00 in0.0 mm
06:40 AM 19.9°F-6.7°C 17.9°F-7.8°C 92% Calm Calm -- 30.16 in1021.3 mb - 0.00 in0.0 mm 0.00 in0.0 mm
06:50 AM 20.0°F-6.7°C 18.1°F-7.7°C 92% 2.3 mph W3.7 kmh W 2.3 mph3.7 kmh 30.16 in1021.3 mb - 0.00 in0.0 mm 0.00 in0.0 mm
07:00 AM 19.5°F-6.9°C 17.3°F-8.2°C 91% Calm Calm -- 30.16 in1021.3 mb - 0.00 in0.0 mm 0.00 in0.0 mm
07:10 AM 19.9°F-6.7°C 18.0°F-7.8°C 92% Calm Calm -- 30.16 in1021.3 mb - 0.00 in0.0 mm 0.00 in0.0 mm
07:20 AM 19.6°F-6.9°C 17.7°F-7.9°C 92% Calm Calm -- 30.15 in1021.0 mb - 0.00 in0.0 mm 0.00 in0.0 mm
07:30 AM 19.0°F-7.2°C 17.1°F-8.3°C 92% Calm Calm -- 30.15 in1021.0 mb - 0.00 in0.0 mm 0.00 in0.0 mm
07:40 AM 19.9°F-6.7°C 18.2°F-7.7°C 93% Calm Calm -- 30.14 in1020.7 mb - 0.00 in0.0 mm 0.00 in0.0 mm
07:50 AM 19.8°F-6.8°C 17.8°F-7.9°C 92% Calm Calm -- 30.14 in1020.7 mb - 0.00 in0.0 mm 0.00 in0.0 mm
08:00 AM 20.0°F-6.7°C 18.1°F-7.7°C 92% Calm Calm -- 30.14 in1020.7 mb - 0.00 in0.0 mm 0.00 in0.0 mm
08:10 AM 21.7°F-5.7°C 19.7°F-6.8°C 92% Calm Calm -- 30.14 in1020.7 mb - 0.00 in0.0 mm 0.00 in0.0 mm
08:20 AM 22.1°F-5.5°C 19.6°F-6.9°C 90% Calm Calm -- 30.14 in1020.7 mb - 0.00 in0.0 mm 0.00 in0.0 mm
08:30 AM 22.8°F-5.1°C 20.3°F-6.5°C 90% Calm Calm -- 30.14 in1020.7 mb - 0.00 in0.0 mm 0.00 in0.0 mm
08:40 AM 23.5°F-4.7°C 20.7°F-6.3°C 89% Calm Calm -- 30.14 in1020.7 mb - 0.00 in0.0 mm 0.00 in0.0 mm
08:50 AM 24.3°F-4.3°C 21.2°F-6.0°C 88% Calm Calm -- 30.14 in1020.7 mb - 0.00 in0.0 mm 0.00 in0.0 mm
09:00 AM 25.3°F-3.7°C 22.2°F-5.4°C 88% Calm Calm -- 30.14 in1020.7 mb - 0.00 in0.0 mm 0.00 in0.0 mm
09:10 AM 26.5°F-3.1°C 22.9°F-5.1°C 86% Calm Calm -- 30.14 in1020.7 mb - 0.00 in0.0 mm 0.00 in0.0 mm
09:20 AM 27.5°F-2.5°C 23.6°F-4.7°C 85% Calm Calm -- 30.14 in1020.7 mb - 0.00 in0.0 mm 0.00 in0.0 mm
09:30 AM 28.0°F-2.2°C 24.1°F-4.4°C 85% Calm Calm -- 30.15 in1021.0 mb - 0.00 in0.0 mm 0.00 in0.0 mm
09:40 AM 28.5°F-1.9°C 24.3°F-4.3°C 84% Calm Calm -- 30.15 in1021.0 mb - 0.00 in0.0 mm 0.00 in0.0 mm
09:50 AM 29.3°F-1.5°C 25.0°F-3.9°C 84% Calm Calm -- 30.15 in1021.0 mb - 0.00 in0.0 mm 0.00 in0.0 mm
10:00 AM 30.0°F-1.1°C 24.3°F-4.3°C 79% Calm Calm -- 30.15 in1021.0 mb - 0.00 in0.0 mm 0.00 in0.0 mm
10:10 AM 30.6°F-0.8°C 24.9°F-3.9°C 79% Calm Calm -- 30.15 in1021.0 mb - 0.00 in0.0 mm 0.00 in0.0 mm
10:20 AM 31.0°F-0.6°C 24.0°F-4.4°C 75% 1.2 mph SW1.9 kmh SW 1.2 mph1.9 kmh 30.14 in1020.7 mb - 0.00 in0.0 mm 0.00 in0.0 mm
10:30 AM 32.3°F0.2°C 25.6°F-3.6°C 76% Calm Calm 2.3 mph3.7 kmh 30.14 in1020.7 mb - 0.00 in0.0 mm 0.00 in0.0 mm
10:40 AM 32.3°F0.2°C 24.9°F-3.9°C 74% 1.2 mph SW1.9 kmh SW 2.3 mph3.7 kmh 30.13 in1020.3 mb - 0.00 in0.0 mm 0.00 in0.0 mm
10:50 AM 33.4°F0.8°C 25.7°F-3.5°C 73% 1.2 mph SSW1.9 kmh SSW 2.3 mph3.7 kmh 30.13 in1020.3 mb - 0.00 in0.0 mm 0.00 in0.0 mm
11:00 AM 33.8°F1.0°C 25.4°F-3.7°C 71% 2.3 mph S3.7 kmh S 3.5 mph5.6 kmh 30.12 in1020.0 mb - 0.00 in0.0 mm 0.00 in0.0 mm
11:10 AM 34.6°F1.4°C 26.2°F-3.2°C 71% 1.2 mph WSW1.9 kmh WSW 3.5 mph5.6 kmh 30.11 in1019.6 mb - 0.00 in0.0 mm 0.00 in0.0 mm
11:20 AM 35.0°F1.7°C 25.5°F-3.6°C 68% 1.2 mph SW1.9 kmh SW 2.3 mph3.7 kmh 30.11 in1019.6 mb - 0.00 in0.0 mm 0.00 in0.0 mm
11:30 AM 35.7°F2.1°C 25.8°F-3.4°C 67% Calm Calm -- 30.10 in1019.3 mb - 0.00 in0.0 mm 0.00 in0.0 mm
11:40 AM 35.7°F2.1°C 25.4°F-3.7°C 66% Calm Calm -- 30.09 in1019.0 mb - 0.00 in0.0 mm 0.00 in0.0 mm
11:50 AM 36.3°F2.4°C 26.8°F-2.9°C 68% 4.6 mph WSW7.4 kmh WSW 3.5 mph5.6 kmh 30.09 in1019.0 mb - 0.00 in0.0 mm 0.00 in0.0 mm
12:00 PM 37.1°F2.8°C 26.0°F-3.3°C 64% 3.5 mph WSW5.6 kmh WSW 5.8 mph9.3 kmh 30.08 in1018.6 mb - 0.00 in0.0 mm 0.00 in0.0 mm
12:10 PM 37.1°F2.8°C 26.1°F-3.3°C 64% 4.6 mph W7.4 kmh W 6.9 mph11.1 kmh 30.07 in1018.3 mb - 0.00 in0.0 mm 0.00 in0.0 mm
12:20 PM 37.9°F3.3°C 26.4°F-3.1°C 63% 5.8 mph W9.3 kmh W 9.2 mph14.8 kmh 30.07 in1018.3 mb - 0.00 in0.0 mm 0.00 in0.0 mm
12:30 PM 37.5°F3.1°C 26.0°F-3.3°C 63% 3.5 mph WSW5.6 kmh WSW 3.5 mph5.6 kmh 30.06 in1017.9 mb - 0.00 in0.0 mm 0.00 in0.0 mm
12:40 PM 37.6°F3.1°C 25.7°F-3.5°C 62% 5.8 mph W9.3 kmh W 6.9 mph11.1 kmh 30.05 in1017.6 mb - 0.00 in0.0 mm 0.00 in0.0 mm
12:50 PM 38.2°F3.4°C 27.1°F-2.7°C 64% 2.3 mph W3.7 kmh W 10.4 mph16.7 kmh 30.04 in1017.3 mb - 0.00 in0.0 mm 0.00 in0.0 mm
01:00 PM 37.8°F3.2°C 26.7°F-2.9°C 64% 1.2 mph W1.9 kmh W 5.8 mph9.3 kmh 30.04 in1017.3 mb - 0.00 in0.0 mm 0.00 in0.0 mm
01:10 PM 38.2°F3.4°C 26.3°F-3.2°C 62% 4.6 mph W7.4 kmh W 6.9 mph11.1 kmh 30.03 in1016.9 mb - 0.00 in0.0 mm 0.00 in0.0 mm
01:20 PM 37.9°F3.3°C 26.8°F-2.9°C 64% 4.6 mph W7.4 kmh W 9.2 mph14.8 kmh 30.02 in1016.6 mb - 0.00 in0.0 mm 0.00 in0.0 mm
01:30 PM 37.7°F3.2°C 26.3°F-3.2°C 63% 2.3 mph WSW3.7 kmh WSW 3.5 mph5.6 kmh 30.01 in1016.3 mb - 0.00 in0.0 mm 0.00 in0.0 mm
01:40 PM 38.0°F3.3°C 26.5°F-3.1°C 63% 5.8 mph WNW9.3 kmh WNW 10.4 mph16.7 kmh 30.01 in1016.3 mb - 0.00 in0.0 mm 0.00 in0.0 mm
01:50 PM 38.0°F3.3°C 26.1°F-3.3°C 62% 3.5 mph WSW5.6 kmh WSW 5.8 mph9.3 kmh 30.01 in1016.3 mb - 0.00 in0.0 mm 0.00 in0.0 mm
02:00 PM 38.1°F3.4°C 27.0°F-2.8°C 64% 3.5 mph W5.6 kmh W 3.5 mph5.6 kmh 30.01 in1016.3 mb - 0.00 in0.0 mm 0.00 in0.0 mm
02:10 PM 38.0°F3.3°C 26.5°F-3.1°C 63% 4.6 mph W7.4 kmh W 6.9 mph11.1 kmh 30.00 in1015.9 mb - 0.00 in0.0 mm 0.00 in0.0 mm
02:20 PM 37.8°F3.2°C 26.3°F-3.2°C 63% 3.5 mph W5.6 kmh W 8.1 mph13.0 kmh 30.00 in1015.9 mb - 0.00 in0.0 mm 0.00 in0.0 mm
02:30 PM 37.4°F3.0°C 25.5°F-3.6°C 62% 3.5 mph W5.6 kmh W 5.8 mph9.3 kmh 30.00 in1015.9 mb - 0.00 in0.0 mm 0.00 in0.0 mm
02:40 PM 37.5°F3.1°C 26.5°F-3.1°C 64% 5.8 mph W9.3 kmh W 11.5 mph18.5 kmh 30.00 in1015.9 mb - 0.00 in0.0 mm 0.00 in0.0 mm
02:50 PM 37.3°F2.9°C 25.8°F-3.4°C 63% 4.6 mph WSW7.4 kmh WSW 6.9 mph11.1 kmh 30.00 in1015.9 mb - 0.00 in0.0 mm 0.00 in0.0 mm
03:00 PM 37.3°F2.9°C 26.6°F-3.0°C 65% 3.5 mph WSW5.6 kmh WSW 8.1 mph13.0 kmh 30.00 in1015.9 mb - 0.00 in0.0 mm 0.00 in0.0 mm
03:10 PM 37.0°F2.8°C 26.3°F-3.2°C 65% 4.6 mph W7.4 kmh W 8.1 mph13.0 kmh 30.00 in1015.9 mb - 0.00 in0.0 mm 0.00 in0.0 mm
03:20 PM 36.7°F2.6°C 26.4°F-3.1°C 66% 3.5 mph W5.6 kmh W 5.8 mph9.3 kmh 30.00 in1015.9 mb - 0.00 in0.0 mm 0.00 in0.0 mm
03:30 PM 36.4°F2.4°C 25.8°F-3.4°C 65% 5.8 mph WSW9.3 kmh WSW 8.1 mph13.0 kmh 29.99 in1015.6 mb - 0.00 in0.0 mm 0.00 in0.0 mm
03:40 PM 36.0°F2.2°C 26.1°F-3.3°C 67% 3.5 mph W5.6 kmh W 5.8 mph9.3 kmh 29.99 in1015.6 mb - 0.00 in0.0 mm 0.00 in0.0 mm
03:50 PM 36.0°F2.2°C 25.7°F-3.5°C 66% 3.5 mph SW5.6 kmh SW 4.6 mph7.4 kmh 29.98 in1015.2 mb - 0.00 in0.0 mm 0.00 in0.0 mm
04:00 PM 35.3°F1.8°C 25.4°F-3.7°C 67% 4.6 mph WSW7.4 kmh WSW 6.9 mph11.1 kmh 29.98 in1015.2 mb - 0.00 in0.0 mm 0.00 in0.0 mm
04:10 PM 35.0°F1.7°C 25.5°F-3.6°C 68% 1.2 mph WSW1.9 kmh WSW 3.5 mph5.6 kmh 29.98 in1015.2 mb - 0.00 in0.0 mm 0.00 in0.0 mm
04:20 PM 34.3°F1.3°C 25.1°F-3.8°C 69% 3.5 mph W5.6 kmh W 6.9 mph11.1 kmh 29.98 in1015.2 mb - 0.00 in0.0 mm 0.00 in0.0 mm
04:30 PM 33.2°F0.7°C 24.8°F-4.0°C 71% 4.6 mph W7.4 kmh W 5.8 mph9.3 kmh 29.98 in1015.2 mb - 0.00 in0.0 mm 0.00 in0.0 mm
04:40 PM 32.9°F0.5°C 24.2°F-4.3°C 70% 4.6 mph W7.4 kmh W 5.8 mph9.3 kmh 29.98 in1015.2 mb - 0.00 in0.0 mm 0.00 in0.0 mm
04:50 PM 32.8°F0.4°C 24.0°F-4.4°C 70% 1.2 mph W1.9 kmh W 2.3 mph3.7 kmh 29.98 in1015.2 mb - 0.00 in0.0 mm 0.00 in0.0 mm
05:00 PM 32.3°F0.2°C 23.6°F-4.7°C 70% 2.3 mph WSW3.7 kmh WSW 3.5 mph5.6 kmh 29.98 in1015.2 mb - 0.00 in0.0 mm 0.00 in0.0 mm
05:10 PM 31.9°F-0.1°C 23.2°F-4.9°C 70% 1.2 mph WSW1.9 kmh WSW 3.5 mph5.6 kmh 29.98 in1015.2 mb - 0.00 in0.0 mm 0.00 in0.0 mm
05:20 PM 31.7°F-0.2°C 23.0°F-5.0°C 70% 2.3 mph WSW3.7 kmh WSW 3.5 mph5.6 kmh 29.98 in1015.2 mb - 0.00 in0.0 mm 0.00 in0.0 mm
05:30 PM 31.5°F-0.3°C 23.2°F-4.9°C 71% 2.3 mph WSW3.7 kmh WSW 3.5 mph5.6 kmh 29.98 in1015.2 mb - 0.00 in0.0 mm 0.00 in0.0 mm
05:40 PM 31.5°F-0.3°C 23.2°F-4.9°C 71% 3.5 mph SW5.6 kmh SW 3.5 mph5.6 kmh 29.98 in1015.2 mb - 0.00 in0.0 mm 0.00 in0.0 mm
05:50 PM 31.0°F-0.6°C 22.7°F-5.2°C 71% 3.5 mph WSW5.6 kmh WSW 3.5 mph5.6 kmh 29.99 in1015.6 mb - 0.00 in0.0 mm 0.00 in0.0 mm
06:00 PM 30.5°F-0.8°C 22.9°F-5.1°C 73% 2.3 mph WSW3.7 kmh WSW 3.5 mph5.6 kmh 29.99 in1015.6 mb - 0.00 in0.0 mm 0.00 in0.0 mm
06:10 PM 30.6°F-0.8°C 22.7°F-5.2°C 72% Calm Calm -- 29.99 in1015.6 mb - 0.00 in0.0 mm 0.00 in0.0 mm
06:20 PM 30.6°F-0.8°C 22.6°F-5.2°C 72% Calm Calm -- 29.99 in1015.6 mb - 0.00 in0.0 mm 0.00 in0.0 mm
06:30 PM 30.2°F-1.0°C 22.6°F-5.2°C 73% Calm Calm -- 29.99 in1015.6 mb - 0.00 in0.0 mm 0.00 in0.0 mm
06:40 PM 30.5°F-0.8°C 22.9°F-5.1°C 73% Calm Calm -- 29.99 in1015.6 mb - 0.00 in0.0 mm 0.00 in0.0 mm
06:50 PM 30.1°F-1.1°C 22.8°F-5.1°C 74% Calm Calm -- 29.99 in1015.6 mb - 0.00 in0.0 mm 0.00 in0.0 mm
07:00 PM 29.3°F-1.5°C 22.4°F-5.3°C 75% Calm Calm -- 29.99 in1015.6 mb - 0.00 in0.0 mm 0.00 in0.0 mm
07:10 PM 26.9°F-2.8°C 21.0°F-6.1°C 78% Calm Calm -- 29.99 in1015.6 mb - 0.00 in0.0 mm 0.00 in0.0 mm
07:20 PM 25.8°F-3.4°C 20.8°F-6.2°C 81% Calm Calm -- 29.99 in1015.6 mb - 0.00 in0.0 mm 0.00 in0.0 mm
07:30 PM 26.1°F-3.3°C 21.4°F-5.9°C 82% Calm Calm -- 29.99 in1015.6 mb - 0.00 in0.0 mm 0.00 in0.0 mm
07:40 PM 26.8°F-2.9°C 21.8°F-5.7°C 81% Calm Calm -- 30.00 in1015.9 mb - 0.00 in0.0 mm 0.00 in0.0 mm
07:50 PM 27.0°F-2.8°C 21.9°F-5.6°C 81% Calm Calm -- 30.00 in1015.9 mb - 0.00 in0.0 mm 0.00 in0.0 mm
08:00 PM 26.8°F-2.9°C 21.5°F-5.8°C 80% Calm Calm -- 30.00 in1015.9 mb - 0.00 in0.0 mm 0.00 in0.0 mm
08:10 PM 25.9°F-3.4°C 21.1°F-6.1°C 82% Calm Calm -- 30.00 in1015.9 mb - 0.00 in0.0 mm 0.00 in0.0 mm
08:20 PM 25.5°F-3.6°C 21.1°F-6.1°C 83% Calm Calm -- 30.00 in1015.9 mb - 0.00 in0.0 mm 0.00 in0.0 mm
08:30 PM 25.9°F-3.4°C 21.1°F-6.1°C 82% Calm Calm -- 30.00 in1015.9 mb - 0.00 in0.0 mm 0.00 in0.0 mm
08:40 PM 25.1°F-3.8°C 20.9°F-6.2°C 84% Calm Calm -- 30.00 in1015.9 mb - 0.00 in0.0 mm 0.00 in0.0 mm
08:50 PM 25.2°F-3.8°C 21.0°F-6.1°C 84% Calm Calm -- 30.01 in1016.3 mb - 0.00 in0.0 mm 0.00 in0.0 mm
09:00 PM 25.5°F-3.6°C 21.0°F-6.1°C 83% Calm Calm -- 30.01 in1016.3 mb - 0.00 in0.0 mm 0.00 in0.0 mm
09:10 PM 25.4°F-3.7°C 21.2°F-6.0°C 84% Calm Calm -- 30.01 in1016.3 mb - 0.00 in0.0 mm 0.00 in0.0 mm
09:20 PM 25.2°F-3.8°C 21.0°F-6.1°C 84% Calm Calm -- 30.01 in1016.3 mb - 0.00 in0.0 mm 0.00 in0.0 mm
09:30 PM 24.9°F-3.9°C 21.1°F-6.1°C 85% Calm Calm -- 30.01 in1016.3 mb - 0.00 in0.0 mm 0.00 in0.0 mm
09:40 PM 25.9°F-3.4°C 22.0°F-5.6°C 85% Calm Calm -- 30.01 in1016.3 mb - 0.00 in0.0 mm 0.00 in0.0 mm
09:50 PM 25.6°F-3.6°C 21.7°F-5.7°C 85% Calm Calm -- 30.01 in1016.3 mb - 0.00 in0.0 mm 0.00 in0.0 mm
10:00 PM 26.4°F-3.1°C 22.2°F-5.4°C 84% Calm Calm -- 30.01 in1016.3 mb - 0.00 in0.0 mm 0.00 in0.0 mm
10:10 PM 26.2°F-3.2°C 22.0°F-5.6°C 84% Calm Calm -- 30.01 in1016.3 mb - 0.00 in0.0 mm 0.00 in0.0 mm
10:20 PM 26.4°F-3.1°C 22.8°F-5.1°C 86% Calm Calm -- 30.00 in1015.9 mb - 0.00 in0.0 mm 0.00 in0.0 mm
10:30 PM 26.9°F-2.8°C 23.0°F-5.0°C 85% Calm Calm -- 30.00 in1015.9 mb - 0.00 in0.0 mm 0.00 in0.0 mm
10:40 PM 27.5°F-2.5°C 23.3°F-4.8°C 84% 3.5 mph WSW5.6 kmh WSW 3.5 mph5.6 kmh 30.00 in1015.9 mb - 0.00 in0.0 mm 0.00 in0.0 mm
10:50 PM 27.9°F-2.3°C 23.4°F-4.8°C 83% 3.5 mph WSW5.6 kmh WSW 3.5 mph5.6 kmh 30.00 in1015.9 mb - 0.00 in0.0 mm 0.00 in0.0 mm
11:00 PM 28.3°F-2.1°C 23.5°F-4.7°C 82% 4.6 mph WSW7.4 kmh WSW 3.5 mph5.6 kmh 30.00 in1015.9 mb - 0.00 in0.0 mm 0.00 in0.0 mm
11:10 PM 28.4°F-2.0°C 23.4°F-4.8°C 81% 3.5 mph WSW5.6 kmh WSW 5.8 mph9.3 kmh 30.00 in1015.9 mb - 0.00 in0.0 mm 0.00 in0.0 mm
11:20 PM 28.7°F-1.8°C 23.6°F-4.7°C 81% 4.6 mph WSW7.4 kmh WSW 4.6 mph7.4 kmh 30.00 in1015.9 mb - 0.00 in0.0 mm 0.00 in0.0 mm
11:30 PM 29.4°F-1.4°C 23.7°F-4.6°C 79% 3.5 mph W5.6 kmh W 3.5 mph5.6 kmh 30.00 in1015.9 mb - 0.00 in0.0 mm 0.00 in0.0 mm
11:40 PM 29.3°F-1.5°C 23.9°F-4.5°C 80% 2.3 mph W3.7 kmh W 2.3 mph3.7 kmh 30.00 in1015.9 mb - 0.00 in0.0 mm 0.00 in0.0 mm
11:50 PM 29.3°F-1.5°C 23.8°F-4.6°C 80% Calm Calm -- 30.00 in1015.9 mb - 0.00 in0.0 mm 0.00 in0.0 mm